sensor_id;sensor_type;location;lat;lon;timestamp;temperature;humidity
46336;DHT22;31365;48.858;8.530;2024-03-06T00:01:11;7.10;99.90
46336;DHT22;31365;48.858;8.530;2024-03-06T00:03:41;7.10;99.90
46336;DHT22;31365;48.858;8.530;2024-03-06T00:06:10;7.10;99.90
46336;DHT22;31365;48.858;8.530;2024-03-06T00:08:39;7.10;99.90
46336;DHT22;31365;48.858;8.530;2024-03-06T00:11:07;7.10;99.90
46336;DHT22;31365;48.858;8.530;2024-03-06T00:13:36;7.20;99.90
46336;DHT22;31365;48.858;8.530;2024-03-06T00:16:04;7.20;99.90
46336;DHT22;31365;48.858;8.530;2024-03-06T00:18:33;7.20;99.90
46336;DHT22;31365;48.858;8.530;2024-03-06T00:21:03;7.20;99.90
46336;DHT22;31365;48.858;8.530;2024-03-06T00:23:33;7.20;99.90
46336;DHT22;31365;48.858;8.530;2024-03-06T00:26:03;7.20;99.90
46336;DHT22;31365;48.858;8.530;2024-03-06T00:28:32;7.20;99.90
46336;DHT22;31365;48.858;8.530;2024-03-06T00:31:00;7.10;99.90
46336;DHT22;31365;48.858;8.530;2024-03-06T00:33:29;7.00;99.90
46336;DHT22;31365;48.858;8.530;2024-03-06T00:35:58;6.90;99.90
46336;DHT22;31365;48.858;8.530;2024-03-06T00:38:28;6.90;99.90
46336;DHT22;31365;48.858;8.530;2024-03-06T00:40:57;6.90;99.90
46336;DHT22;31365;48.858;8.530;2024-03-06T00:43:25;7.00;99.90
46336;DHT22;31365;48.858;8.530;2024-03-06T00:45:53;6.90;99.90
46336;DHT22;31365;48.858;8.530;2024-03-06T00:48:23;7.00;99.90
46336;DHT22;31365;48.858;8.530;2024-03-06T00:50:52;6.90;99.90
46336;DHT22;31365;48.858;8.530;2024-03-06T00:53:20;6.90;99.90
46336;DHT22;31365;48.858;8.530;2024-03-06T00:55:50;6.80;99.90
46336;DHT22;31365;48.858;8.530;2024-03-06T00:58:19;6.80;99.90
46336;DHT22;31365;48.858;8.530;2024-03-06T01:00:51;6.70;99.90
46336;DHT22;31365;48.858;8.530;2024-03-06T01:03:19;6.70;99.90
46336;DHT22;31365;48.858;8.530;2024-03-06T01:05:47;6.70;99.90
46336;DHT22;31365;48.858;8.530;2024-03-06T01:08:16;6.70;99.90
46336;DHT22;31365;48.858;8.530;2024-03-06T01:10:45;6.60;99.90
46336;DHT22;31365;48.858;8.530;2024-03-06T01:13:14;6.60;99.90
46336;DHT22;31365;48.858;8.530;2024-03-06T01:15:43;6.60;99.90
46336;DHT22;31365;48.858;8.530;2024-03-06T01:18:12;6.60;99.90
46336;DHT22;31365;48.858;8.530;2024-03-06T01:20:40;6.60;99.90
46336;DHT22;31365;48.858;8.530;2024-03-06T01:23:09;6.60;99.90
46336;DHT22;31365;48.858;8.530;2024-03-06T01:25:38;6.60;99.90
46336;DHT22;31365;48.858;8.530;2024-03-06T01:28:06;6.50;99.90
46336;DHT22;31365;48.858;8.530;2024-03-06T01:30:36;6.50;99.90
46336;DHT22;31365;48.858;8.530;2024-03-06T01:33:05;6.40;99.90
46336;DHT22;31365;48.858;8.530;2024-03-06T01:35:33;6.40;99.90
46336;DHT22;31365;48.858;8.530;2024-03-06T01:38:02;6.40;99.90
46336;DHT22;31365;48.858;8.530;2024-03-06T01:40:31;6.40;99.90
46336;DHT22;31365;48.858;8.530;2024-03-06T01:43:00;6.40;99.90
46336;DHT22;31365;48.858;8.530;2024-03-06T01:45:29;6.40;99.90
46336;DHT22;31365;48.858;8.530;2024-03-06T01:48:00;6.40;99.90
46336;DHT22;31365;48.858;8.530;2024-03-06T01:50:30;6.40;99.90
46336;DHT22;31365;48.858;8.530;2024-03-06T01:53:01;6.40;99.90
46336;DHT22;31365;48.858;8.530;2024-03-06T01:55:30;6.50;99.90
46336;DHT22;31365;48.858;8.530;2024-03-06T01:57:59;6.50;99.90
46336;DHT22;31365;48.858;8.530;2024-03-06T02:00:28;6.60;99.90
46336;DHT22;31365;48.858;8.530;2024-03-06T02:02:57;6.50;99.90
46336;DHT22;31365;48.858;8.530;2024-03-06T02:05:28;6.50;99.90
46336;DHT22;31365;48.858;8.530;2024-03-06T02:07:59;6.50;99.90
46336;DHT22;31365;48.858;8.530;2024-03-06T02:10:27;6.50;99.90
46336;DHT22;31365;48.858;8.530;2024-03-06T02:12:56;6.60;99.90
46336;DHT22;31365;48.858;8.530;2024-03-06T02:15:25;6.60;99.90
46336;DHT22;31365;48.858;8.530;2024-03-06T02:17:54;6.60;99.90
46336;DHT22;31365;48.858;8.530;2024-03-06T02:20:24;6.60;99.90
46336;DHT22;31365;48.858;8.530;2024-03-06T02:22:53;6.60;99.90
46336;DHT22;31365;48.858;8.530;2024-03-06T02:25:22;6.60;99.90
46336;DHT22;31365;48.858;8.530;2024-03-06T02:27:50;6.50;99.90
46336;DHT22;31365;48.858;8.530;2024-03-06T02:30:19;6.50;99.90
46336;DHT22;31365;48.858;8.530;2024-03-06T02:32:48;6.50;99.90
46336;DHT22;31365;48.858;8.530;2024-03-06T02:35:17;6.50;99.90
46336;DHT22;31365;48.858;8.530;2024-03-06T02:37:47;6.50;99.90
46336;DHT22;31365;48.858;8.530;2024-03-06T02:40:16;6.50;99.90
46336;DHT22;31365;48.858;8.530;2024-03-06T02:42:45;6.50;99.90
46336;DHT22;31365;48.858;8.530;2024-03-06T02:45:15;6.50;99.90
46336;DHT22;31365;48.858;8.530;2024-03-06T02:47:44;6.50;99.90
46336;DHT22;31365;48.858;8.530;2024-03-06T02:50:14;6.50;99.90
46336;DHT22;31365;48.858;8.530;2024-03-06T02:52:42;6.50;99.90
46336;DHT22;31365;48.858;8.530;2024-03-06T02:55:13;6.50;99.90
46336;DHT22;31365;48.858;8.530;2024-03-06T02:57:42;6.50;99.90
46336;DHT22;31365;48.858;8.530;2024-03-06T03:00:11;6.50;99.90
46336;DHT22;31365;48.858;8.530;2024-03-06T03:02:41;6.50;99.90
46336;DHT22;31365;48.858;8.530;2024-03-06T03:05:10;6.50;99.90
46336;DHT22;31365;48.858;8.530;2024-03-06T03:07:39;6.50;99.90
46336;DHT22;31365;48.858;8.530;2024-03-06T03:10:10;6.50;99.90
46336;DHT22;31365;48.858;8.530;2024-03-06T03:12:41;6.50;99.90
46336;DHT22;31365;48.858;8.530;2024-03-06T03:15:10;6.50;99.90
46336;DHT22;31365;48.858;8.530;2024-03-06T03:17:38;6.50;99.90
46336;DHT22;31365;48.858;8.530;2024-03-06T03:20:07;6.50;99.90
46336;DHT22;31365;48.858;8.530;2024-03-06T03:22:39;6.60;99.90
46336;DHT22;31365;48.858;8.530;2024-03-06T03:25:08;6.50;99.90
46336;DHT22;31365;48.858;8.530;2024-03-06T03:27:40;6.60;99.90
46336;DHT22;31365;48.858;8.530;2024-03-06T03:30:11;6.60;99.90
46336;DHT22;31365;48.858;8.530;2024-03-06T03:32:39;6.60;99.90
46336;DHT22;31365;48.858;8.530;2024-03-06T03:35:08;6.50;99.90
46336;DHT22;31365;48.858;8.530;2024-03-06T03:37:36;6.50;99.90
46336;DHT22;31365;48.858;8.530;2024-03-06T03:40:06;6.50;99.90
46336;DHT22;31365;48.858;8.530;2024-03-06T03:42:38;6.50;99.90
46336;DHT22;31365;48.858;8.530;2024-03-06T03:45:09;6.50;99.90
46336;DHT22;31365;48.858;8.530;2024-03-06T03:47:37;6.40;99.90
46336;DHT22;31365;48.858;8.530;2024-03-06T03:50:06;6.40;99.90
46336;DHT22;31365;48.858;8.530;2024-03-06T03:52:37;6.40;99.90
46336;DHT22;31365;48.858;8.530;2024-03-06T03:55:09;6.30;99.90
46336;DHT22;31365;48.858;8.530;2024-03-06T03:57:38;6.30;99.90
46336;DHT22;31365;48.858;8.530;2024-03-06T04:00:10;6.30;99.90
46336;DHT22;31365;48.858;8.530;2024-03-06T04:02:39;6.20;99.90
46336;DHT22;31365;48.858;8.530;2024-03-06T04:05:09;6.20;99.90
46336;DHT22;31365;48.858;8.530;2024-03-06T04:07:38;6.20;99.90
46336;DHT22;31365;48.858;8.530;2024-03-06T04:10:07;6.20;99.90
46336;DHT22;31365;48.858;8.530;2024-03-06T04:12:39;6.20;99.90
46336;DHT22;31365;48.858;8.530;2024-03-06T04:15:09;6.20;99.90
46336;DHT22;31365;48.858;8.530;2024-03-06T04:17:38;6.20;99.90
46336;DHT22;31365;48.858;8.530;2024-03-06T04:20:09;6.20;99.90
46336;DHT22;31365;48.858;8.530;2024-03-06T04:22:40;6.20;99.90
46336;DHT22;31365;48.858;8.530;2024-03-06T04:25:09;6.20;99.90
46336;DHT22;31365;48.858;8.530;2024-03-06T04:27:37;6.20;99.90
46336;DHT22;31365;48.858;8.530;2024-03-06T04:30:09;6.20;99.90
46336;DHT22;31365;48.858;8.530;2024-03-06T04:32:38;6.20;99.90
46336;DHT22;31365;48.858;8.530;2024-03-06T04:35:07;6.20;99.90
46336;DHT22;31365;48.858;8.530;2024-03-06T04:37:38;6.20;99.90
46336;DHT22;31365;48.858;8.530;2024-03-06T04:40:07;6.20;99.90
46336;DHT22;31365;48.858;8.530;2024-03-06T04:42:37;6.20;99.90
46336;DHT22;31365;48.858;8.530;2024-03-06T04:45:11;6.20;99.90
46336;DHT22;31365;48.858;8.530;2024-03-06T04:47:43;6.30;99.90
46336;DHT22;31365;48.858;8.530;2024-03-06T04:50:12;6.30;99.90
46336;DHT22;31365;48.858;8.530;2024-03-06T04:52:43;6.30;99.90
46336;DHT22;31365;48.858;8.530;2024-03-06T04:55:12;6.30;99.90
46336;DHT22;31365;48.858;8.530;2024-03-06T04:57:43;6.40;99.90
46336;DHT22;31365;48.858;8.530;2024-03-06T05:00:15;6.40;99.90
46336;DHT22;31365;48.858;8.530;2024-03-06T05:02:45;6.40;99.90
46336;DHT22;31365;48.858;8.530;2024-03-06T05:05:33;6.40;99.90
46336;DHT22;31365;48.858;8.530;2024-03-06T05:08:19;6.50;99.90
46336;DHT22;31365;48.858;8.530;2024-03-06T05:11:05;6.50;99.90
46336;DHT22;31365;48.858;8.530;2024-03-06T05:13:52;6.50;99.90
46336;DHT22;31365;48.858;8.530;2024-03-06T05:16:40;6.50;99.90
46336;DHT22;31365;48.858;8.530;2024-03-06T05:19:26;6.50;99.90
46336;DHT22;31365;48.858;8.530;2024-03-06T05:22:16;6.60;99.90
46336;DHT22;31365;48.858;8.530;2024-03-06T05:25:03;6.60;99.90
46336;DHT22;31365;48.858;8.530;2024-03-06T05:27:50;6.60;99.90
46336;DHT22;31365;48.858;8.530;2024-03-06T05:30:36;6.60;99.90
46336;DHT22;31365;48.858;8.530;2024-03-06T05:33:24;6.60;99.90
46336;DHT22;31365;48.858;8.530;2024-03-06T05:36:12;6.50;99.90
46336;DHT22;31365;48.858;8.530;2024-03-06T05:39:00;6.50;99.90
46336;DHT22;31365;48.858;8.530;2024-03-06T05:41:46;6.60;99.90
46336;DHT22;31365;48.858;8.530;2024-03-06T05:44:32;6.60;99.90
46336;DHT22;31365;48.858;8.530;2024-03-06T05:47:19;6.50;99.90
46336;DHT22;31365;48.858;8.530;2024-03-06T05:50:08;6.60;99.90
46336;DHT22;31365;48.858;8.530;2024-03-06T05:52:55;6.60;99.90
46336;DHT22;31365;48.858;8.530;2024-03-06T05:55:41;6.60;99.90
46336;DHT22;31365;48.858;8.530;2024-03-06T05:58:27;6.60;99.90
46336;DHT22;31365;48.858;8.530;2024-03-06T06:00:55;6.70;99.90
46336;DHT22;31365;48.858;8.530;2024-03-06T06:03:23;6.70;99.90
46336;DHT22;31365;48.858;8.530;2024-03-06T06:05:54;6.70;99.90
46336;DHT22;31365;48.858;8.530;2024-03-06T06:08:22;6.70;99.90
46336;DHT22;31365;48.858;8.530;2024-03-06T06:10:51;6.70;99.90
46336;DHT22;31365;48.858;8.530;2024-03-06T06:13:22;6.70;99.90
46336;DHT22;31365;48.858;8.530;2024-03-06T06:15:50;6.70;99.90
46336;DHT22;31365;48.858;8.530;2024-03-06T06:18:19;6.80;99.90
46336;DHT22;31365;48.858;8.530;2024-03-06T06:20:47;6.70;99.90
46336;DHT22;31365;48.858;8.530;2024-03-06T06:23:17;6.70;99.90
46336;DHT22;31365;48.858;8.530;2024-03-06T06:25:46;6.70;99.90
46336;DHT22;31365;48.858;8.530;2024-03-06T06:28:16;6.70;99.90
46336;DHT22;31365;48.858;8.530;2024-03-06T06:30:44;6.70;99.90
46336;DHT22;31365;48.858;8.530;2024-03-06T06:33:13;6.70;99.90
46336;DHT22;31365;48.858;8.530;2024-03-06T06:35:41;6.80;99.90
46336;DHT22;31365;48.858;8.530;2024-03-06T06:38:09;6.80;99.90
46336;DHT22;31365;48.858;8.530;2024-03-06T06:40:39;6.80;99.90
46336;DHT22;31365;48.858;8.530;2024-03-06T06:43:08;6.80;99.90
46336;DHT22;31365;48.858;8.530;2024-03-06T06:45:37;6.90;99.90
46336;DHT22;31365;48.858;8.530;2024-03-06T06:48:06;6.90;99.90
46336;DHT22;31365;48.858;8.530;2024-03-06T06:50:35;6.90;99.90
46336;DHT22;31365;48.858;8.530;2024-03-06T06:53:04;7.00;99.90
46336;DHT22;31365;48.858;8.530;2024-03-06T06:55:32;7.00;99.90
46336;DHT22;31365;48.858;8.530;2024-03-06T06:58:02;7.00;99.90
46336;DHT22;31365;48.858;8.530;2024-03-06T07:00:31;7.00;99.90
46336;DHT22;31365;48.858;8.530;2024-03-06T07:03:01;7.10;99.90
46336;DHT22;31365;48.858;8.530;2024-03-06T07:05:29;7.10;99.90
46336;DHT22;31365;48.858;8.530;2024-03-06T07:07:58;7.10;99.90
46336;DHT22;31365;48.858;8.530;2024-03-06T07:10:27;7.10;99.90
46336;DHT22;31365;48.858;8.530;2024-03-06T07:12:55;7.10;99.90
46336;DHT22;31365;48.858;8.530;2024-03-06T07:15:25;7.10;99.90
46336;DHT22;31365;48.858;8.530;2024-03-06T07:17:54;7.20;99.90
46336;DHT22;31365;48.858;8.530;2024-03-06T07:20:22;7.20;99.90
46336;DHT22;31365;48.858;8.530;2024-03-06T07:22:51;7.30;99.90
46336;DHT22;31365;48.858;8.530;2024-03-06T07:25:19;7.30;99.90
46336;DHT22;31365;48.858;8.530;2024-03-06T07:27:48;7.40;99.90
46336;DHT22;31365;48.858;8.530;2024-03-06T07:30:16;7.40;99.90
46336;DHT22;31365;48.858;8.530;2024-03-06T07:32:46;7.40;99.90
46336;DHT22;31365;48.858;8.530;2024-03-06T07:35:14;7.40;99.90
46336;DHT22;31365;48.858;8.530;2024-03-06T07:37:44;7.50;99.90
46336;DHT22;31365;48.858;8.530;2024-03-06T07:40:13;7.50;99.90
46336;DHT22;31365;48.858;8.530;2024-03-06T07:42:42;7.50;99.90
46336;DHT22;31365;48.858;8.530;2024-03-06T07:45:10;7.50;99.90
46336;DHT22;31365;48.858;8.530;2024-03-06T07:47:39;7.60;99.90
46336;DHT22;31365;48.858;8.530;2024-03-06T07:50:10;7.60;99.90
46336;DHT22;31365;48.858;8.530;2024-03-06T07:52:39;7.60;99.90
46336;DHT22;31365;48.858;8.530;2024-03-06T07:55:08;7.70;99.90
46336;DHT22;31365;48.858;8.530;2024-03-06T07:57:36;7.70;99.90
46336;DHT22;31365;48.858;8.530;2024-03-06T08:00:06;7.70;99.90
46336;DHT22;31365;48.858;8.530;2024-03-06T08:02:42;7.70;99.90
46336;DHT22;31365;48.858;8.530;2024-03-06T08:05:12;7.80;99.90
46336;DHT22;31365;48.858;8.530;2024-03-06T08:07:42;7.80;99.90
46336;DHT22;31365;48.858;8.530;2024-03-06T08:10:13;7.80;99.90
46336;DHT22;31365;48.858;8.530;2024-03-06T08:12:42;7.90;99.90
46336;DHT22;31365;48.858;8.530;2024-03-06T08:15:13;7.90;99.90
46336;DHT22;31365;48.858;8.530;2024-03-06T08:17:43;8.00;99.90
46336;DHT22;31365;48.858;8.530;2024-03-06T08:20:14;8.00;99.90
46336;DHT22;31365;48.858;8.530;2024-03-06T08:22:43;8.10;99.90
46336;DHT22;31365;48.858;8.530;2024-03-06T08:25:12;8.10;99.90
46336;DHT22;31365;48.858;8.530;2024-03-06T08:27:42;8.10;99.90
46336;DHT22;31365;48.858;8.530;2024-03-06T08:30:11;8.20;99.90
46336;DHT22;31365;48.858;8.530;2024-03-06T08:32:40;8.20;99.90
46336;DHT22;31365;48.858;8.530;2024-03-06T08:35:13;8.20;99.90
46336;DHT22;31365;48.858;8.530;2024-03-06T08:37:47;8.20;99.90
46336;DHT22;31365;48.858;8.530;2024-03-06T08:40:16;8.30;99.90
46336;DHT22;31365;48.858;8.530;2024-03-06T08:42:45;8.30;99.90
46336;DHT22;31365;48.858;8.530;2024-03-06T08:45:16;8.40;99.90
46336;DHT22;31365;48.858;8.530;2024-03-06T08:47:45;8.40;99.90
46336;DHT22;31365;48.858;8.530;2024-03-06T08:50:16;8.50;99.90
46336;DHT22;31365;48.858;8.530;2024-03-06T08:52:45;8.50;99.90
46336;DHT22;31365;48.858;8.530;2024-03-06T08:55:14;8.60;99.90
46336;DHT22;31365;48.858;8.530;2024-03-06T08:57:43;8.70;99.90
46336;DHT22;31365;48.858;8.530;2024-03-06T09:00:12;8.70;99.90
46336;DHT22;31365;48.858;8.530;2024-03-06T09:02:42;8.70;99.90
46336;DHT22;31365;48.858;8.530;2024-03-06T09:05:11;8.70;99.90
46336;DHT22;31365;48.858;8.530;2024-03-06T09:07:42;8.80;99.90
46336;DHT22;31365;48.858;8.530;2024-03-06T09:10:11;8.70;99.90
46336;DHT22;31365;48.858;8.530;2024-03-06T09:12:40;8.70;99.90
46336;DHT22;31365;48.858;8.530;2024-03-06T09:15:09;8.70;99.90
46336;DHT22;31365;48.858;8.530;2024-03-06T09:17:39;8.70;99.90
46336;DHT22;31365;48.858;8.530;2024-03-06T09:20:10;8.70;99.90
46336;DHT22;31365;48.858;8.530;2024-03-06T09:22:42;8.70;99.90
46336;DHT22;31365;48.858;8.530;2024-03-06T09:25:11;8.70;99.90
46336;DHT22;31365;48.858;8.530;2024-03-06T09:27:43;8.60;99.90
46336;DHT22;31365;48.858;8.530;2024-03-06T09:30:12;8.60;99.90
46336;DHT22;31365;48.858;8.530;2024-03-06T09:32:43;8.40;99.90
46336;DHT22;31365;48.858;8.530;2024-03-06T09:35:12;8.40;99.90
46336;DHT22;31365;48.858;8.530;2024-03-06T09:37:46;8.40;99.90
46336;DHT22;31365;48.858;8.530;2024-03-06T09:40:22;8.40;99.90
46336;DHT22;31365;48.858;8.530;2024-03-06T09:42:51;8.60;99.90
46336;DHT22;31365;48.858;8.530;2024-03-06T09:45:21;8.60;99.90
46336;DHT22;31365;48.858;8.530;2024-03-06T09:47:50;8.80;99.90
46336;DHT22;31365;48.858;8.530;2024-03-06T09:50:24;8.90;99.90
46336;DHT22;31365;48.858;8.530;2024-03-06T09:52:56;9.00;99.90
46336;DHT22;31365;48.858;8.530;2024-03-06T09:55:25;9.00;99.90
46336;DHT22;31365;48.858;8.530;2024-03-06T09:57:55;9.00;99.90
46336;DHT22;31365;48.858;8.530;2024-03-06T10:00:24;8.90;99.90
46336;DHT22;31365;48.858;8.530;2024-03-06T10:02:57;8.90;99.90
46336;DHT22;31365;48.858;8.530;2024-03-06T10:05:28;8.90;99.90
46336;DHT22;31365;48.858;8.530;2024-03-06T10:08:00;8.90;99.90
46336;DHT22;31365;48.858;8.530;2024-03-06T10:10:29;8.90;99.90
46336;DHT22;31365;48.858;8.530;2024-03-06T10:12:58;8.80;99.90
46336;DHT22;31365;48.858;8.530;2024-03-06T10:15:30;8.80;99.90
46336;DHT22;31365;48.858;8.530;2024-03-06T10:18:13;8.80;99.90
46336;DHT22;31365;48.858;8.530;2024-03-06T10:20:46;8.90;99.90
46336;DHT22;31365;48.858;8.530;2024-03-06T10:23:16;8.90;99.90
46336;DHT22;31365;48.858;8.530;2024-03-06T10:25:47;8.90;99.90
46336;DHT22;31365;48.858;8.530;2024-03-06T10:28:20;8.90;99.90
46336;DHT22;31365;48.858;8.530;2024-03-06T10:30:51;9.00;99.90
46336;DHT22;31365;48.858;8.530;2024-03-06T10:33:21;9.10;99.90
46336;DHT22;31365;48.858;8.530;2024-03-06T10:35:49;9.10;99.90
46336;DHT22;31365;48.858;8.530;2024-03-06T10:38:20;9.20;99.90
46336;DHT22;31365;48.858;8.530;2024-03-06T10:40:51;9.30;99.90
46336;DHT22;31365;48.858;8.530;2024-03-06T10:43:21;9.20;99.90
46336;DHT22;31365;48.858;8.530;2024-03-06T10:45:59;9.10;99.90
46336;DHT22;31365;48.858;8.530;2024-03-06T10:48:31;9.10;99.90
46336;DHT22;31365;48.858;8.530;2024-03-06T10:51:02;9.20;99.90
46336;DHT22;31365;48.858;8.530;2024-03-06T10:53:35;9.30;99.90
46336;DHT22;31365;48.858;8.530;2024-03-06T10:56:08;9.30;99.90
46336;DHT22;31365;48.858;8.530;2024-03-06T10:58:38;9.30;99.90
46336;DHT22;31365;48.858;8.530;2024-03-06T11:01:09;9.20;99.90
46336;DHT22;31365;48.858;8.530;2024-03-06T11:03:40;9.20;99.90
46336;DHT22;31365;48.858;8.530;2024-03-06T11:06:09;9.10;99.90
46336;DHT22;31365;48.858;8.530;2024-03-06T11:08:39;8.90;99.90
46336;DHT22;31365;48.858;8.530;2024-03-06T11:11:22;8.90;99.90
46336;DHT22;31365;48.858;8.530;2024-03-06T11:13:54;8.80;99.90
46336;DHT22;31365;48.858;8.530;2024-03-06T11:16:28;8.70;99.90
46336;DHT22;31365;48.858;8.530;2024-03-06T11:19:08;8.70;99.90
46336;DHT22;31365;48.858;8.530;2024-03-06T11:21:46;8.60;99.90
46336;DHT22;31365;48.858;8.530;2024-03-06T11:24:18;8.60;99.90
46336;DHT22;31365;48.858;8.530;2024-03-06T11:26:49;8.60;99.90
46336;DHT22;31365;48.858;8.530;2024-03-06T11:29:19;8.50;99.90
46336;DHT22;31365;48.858;8.530;2024-03-06T11:32:02;8.40;99.90
46336;DHT22;31365;48.858;8.530;2024-03-06T11:34:36;8.30;99.90
46336;DHT22;31365;48.858;8.530;2024-03-06T11:37:07;8.30;99.90
46336;DHT22;31365;48.858;8.530;2024-03-06T11:39:39;8.30;99.90
46336;DHT22;31365;48.858;8.530;2024-03-06T11:42:11;8.40;99.90
46336;DHT22;31365;48.858;8.530;2024-03-06T11:44:53;8.40;99.90
46336;DHT22;31365;48.858;8.530;2024-03-06T11:47:24;8.40;99.90
46336;DHT22;31365;48.858;8.530;2024-03-06T11:49:53;8.40;99.90
46336;DHT22;31365;48.858;8.530;2024-03-06T11:52:22;8.40;99.90
46336;DHT22;31365;48.858;8.530;2024-03-06T11:54:53;8.20;99.90
46336;DHT22;31365;48.858;8.530;2024-03-06T11:57:21;8.20;99.90
46336;DHT22;31365;48.858;8.530;2024-03-06T11:59:52;8.20;99.90
46336;DHT22;31365;48.858;8.530;2024-03-06T12:02:21;8.20;99.90
46336;DHT22;31365;48.858;8.530;2024-03-06T12:04:50;8.20;99.90
46336;DHT22;31365;48.858;8.530;2024-03-06T12:07:20;8.20;99.90
46336;DHT22;31365;48.858;8.530;2024-03-06T12:09:51;8.20;99.90
46336;DHT22;31365;48.858;8.530;2024-03-06T12:12:21;8.30;99.90
46336;DHT22;31365;48.858;8.530;2024-03-06T12:14:57;8.30;99.90
46336;DHT22;31365;48.858;8.530;2024-03-06T12:17:27;8.30;99.90
46336;DHT22;31365;48.858;8.530;2024-03-06T12:19:56;8.30;99.90
46336;DHT22;31365;48.858;8.530;2024-03-06T12:22:26;8.20;99.90
46336;DHT22;31365;48.858;8.530;2024-03-06T12:25:00;8.20;99.90
46336;DHT22;31365;48.858;8.530;2024-03-06T12:27:31;8.30;99.90
46336;DHT22;31365;48.858;8.530;2024-03-06T12:30:01;8.30;99.90
46336;DHT22;31365;48.858;8.530;2024-03-06T12:32:40;8.30;99.90
46336;DHT22;31365;48.858;8.530;2024-03-06T12:35:09;8.40;99.90
46336;DHT22;31365;48.858;8.530;2024-03-06T12:37:38;8.30;99.90
46336;DHT22;31365;48.858;8.530;2024-03-06T12:40:09;8.30;99.90
46336;DHT22;31365;48.858;8.530;2024-03-06T12:42:40;8.30;99.90
46336;DHT22;31365;48.858;8.530;2024-03-06T12:45:09;8.40;99.90
46336;DHT22;31365;48.858;8.530;2024-03-06T12:47:40;8.40;99.90
46336;DHT22;31365;48.858;8.530;2024-03-06T12:50:10;8.40;99.90
46336;DHT22;31365;48.858;8.530;2024-03-06T12:52:40;8.50;99.90
46336;DHT22;31365;48.858;8.530;2024-03-06T12:55:14;8.60;99.90
46336;DHT22;31365;48.858;8.530;2024-03-06T12:57:42;8.60;99.90
46336;DHT22;31365;48.858;8.530;2024-03-06T13:00:12;8.60;99.90
46336;DHT22;31365;48.858;8.530;2024-03-06T13:02:43;8.70;99.90
46336;DHT22;31365;48.858;8.530;2024-03-06T13:05:12;8.80;99.90
46336;DHT22;31365;48.858;8.530;2024-03-06T13:07:42;8.90;99.90
46336;DHT22;31365;48.858;8.530;2024-03-06T13:10:11;8.80;99.90
46336;DHT22;31365;48.858;8.530;2024-03-06T13:12:41;8.80;99.90
46336;DHT22;31365;48.858;8.530;2024-03-06T13:15:10;8.90;99.90
46336;DHT22;31365;48.858;8.530;2024-03-06T13:17:38;8.90;99.90
46336;DHT22;31365;48.858;8.530;2024-03-06T13:20:08;8.90;99.90
46336;DHT22;31365;48.858;8.530;2024-03-06T13:22:39;8.90;99.90
46336;DHT22;31365;48.858;8.530;2024-03-06T13:25:08;8.90;99.90
46336;DHT22;31365;48.858;8.530;2024-03-06T13:27:37;9.00;99.90
46336;DHT22;31365;48.858;8.530;2024-03-06T13:30:08;8.90;99.90
46336;DHT22;31365;48.858;8.530;2024-03-06T13:32:37;8.90;99.90
46336;DHT22;31365;48.858;8.530;2024-03-06T13:35:06;8.90;99.90
46336;DHT22;31365;48.858;8.530;2024-03-06T13:37:39;8.90;99.90
46336;DHT22;31365;48.858;8.530;2024-03-06T13:40:09;8.90;99.90
46336;DHT22;31365;48.858;8.530;2024-03-06T13:42:40;8.90;99.90
46336;DHT22;31365;48.858;8.530;2024-03-06T13:45:11;8.90;99.90
46336;DHT22;31365;48.858;8.530;2024-03-06T13:47:40;8.80;99.90
46336;DHT22;31365;48.858;8.530;2024-03-06T13:50:10;8.70;99.90
46336;DHT22;31365;48.858;8.530;2024-03-06T13:52:40;8.70;99.90
46336;DHT22;31365;48.858;8.530;2024-03-06T13:55:11;8.70;99.90
46336;DHT22;31365;48.858;8.530;2024-03-06T13:57:40;8.70;99.90
46336;DHT22;31365;48.858;8.530;2024-03-06T14:00:12;8.90;99.90
46336;DHT22;31365;48.858;8.530;2024-03-06T14:02:44;8.90;99.90
46336;DHT22;31365;48.858;8.530;2024-03-06T14:05:15;8.90;99.90
46336;DHT22;31365;48.858;8.530;2024-03-06T14:07:44;9.00;99.90
46336;DHT22;31365;48.858;8.530;2024-03-06T14:10:14;8.90;99.90
46336;DHT22;31365;48.858;8.530;2024-03-06T14:12:46;9.00;99.90
46336;DHT22;31365;48.858;8.530;2024-03-06T14:15:16;9.00;99.90
46336;DHT22;31365;48.858;8.530;2024-03-06T14:17:45;9.00;99.90
46336;DHT22;31365;48.858;8.530;2024-03-06T14:20:15;8.90;99.90
46336;DHT22;31365;48.858;8.530;2024-03-06T14:22:44;8.90;99.90
46336;DHT22;31365;48.858;8.530;2024-03-06T14:25:13;8.80;99.90
46336;DHT22;31365;48.858;8.530;2024-03-06T14:27:43;8.80;99.90
46336;DHT22;31365;48.858;8.530;2024-03-06T14:30:12;8.80;99.90
46336;DHT22;31365;48.858;8.530;2024-03-06T14:32:43;8.80;99.90
46336;DHT22;31365;48.858;8.530;2024-03-06T14:35:12;8.70;99.90
46336;DHT22;31365;48.858;8.530;2024-03-06T14:37:42;8.70;99.90
46336;DHT22;31365;48.858;8.530;2024-03-06T14:40:11;8.70;99.90
46336;DHT22;31365;48.858;8.530;2024-03-06T14:42:40;8.60;99.90
46336;DHT22;31365;48.858;8.530;2024-03-06T14:45:09;8.50;99.90
46336;DHT22;31365;48.858;8.530;2024-03-06T14:47:37;8.50;99.90
46336;DHT22;31365;48.858;8.530;2024-03-06T14:50:09;8.50;99.90
46336;DHT22;31365;48.858;8.530;2024-03-06T14:52:38;8.50;99.90
46336;DHT22;31365;48.858;8.530;2024-03-06T14:55:07;8.50;99.90
46336;DHT22;31365;48.858;8.530;2024-03-06T14:57:37;8.50;99.90
46336;DHT22;31365;48.858;8.530;2024-03-06T15:00:06;8.40;99.90
46336;DHT22;31365;48.858;8.530;2024-03-06T15:02:36;8.40;99.90
46336;DHT22;31365;48.858;8.530;2024-03-06T15:05:05;8.40;99.90
46336;DHT22;31365;48.858;8.530;2024-03-06T15:07:36;8.40;99.90
46336;DHT22;31365;48.858;8.530;2024-03-06T15:10:07;8.40;99.90
46336;DHT22;31365;48.858;8.530;2024-03-06T15:12:37;8.50;99.90
46336;DHT22;31365;48.858;8.530;2024-03-06T15:15:06;8.40;99.90
46336;DHT22;31365;48.858;8.530;2024-03-06T15:17:35;8.40;99.90
46336;DHT22;31365;48.858;8.530;2024-03-06T15:20:06;8.40;99.90
46336;DHT22;31365;48.858;8.530;2024-03-06T15:22:38;8.40;99.90
46336;DHT22;31365;48.858;8.530;2024-03-06T15:25:09;8.40;99.90
46336;DHT22;31365;48.858;8.530;2024-03-06T15:27:40;8.40;99.90
46336;DHT22;31365;48.858;8.530;2024-03-06T15:30:09;8.40;99.90
46336;DHT22;31365;48.858;8.530;2024-03-06T15:32:41;8.30;99.90
46336;DHT22;31365;48.858;8.530;2024-03-06T15:35:10;8.20;99.90
46336;DHT22;31365;48.858;8.530;2024-03-06T15:37:41;8.10;99.90
46336;DHT22;31365;48.858;8.530;2024-03-06T15:40:10;8.20;99.90
46336;DHT22;31365;48.858;8.530;2024-03-06T15:42:39;8.20;99.90
46336;DHT22;31365;48.858;8.530;2024-03-06T15:45:08;8.20;99.90
46336;DHT22;31365;48.858;8.530;2024-03-06T15:47:39;8.20;99.90
46336;DHT22;31365;48.858;8.530;2024-03-06T15:50:09;8.10;99.90
46336;DHT22;31365;48.858;8.530;2024-03-06T15:52:38;8.10;99.90
46336;DHT22;31365;48.858;8.530;2024-03-06T15:55:09;8.10;99.90
46336;DHT22;31365;48.858;8.530;2024-03-06T15:57:38;8.20;99.90
46336;DHT22;31365;48.858;8.530;2024-03-06T16:00:07;8.10;99.90
46336;DHT22;31365;48.858;8.530;2024-03-06T16:02:40;8.10;99.90
46336;DHT22;31365;48.858;8.530;2024-03-06T16:05:10;8.10;99.90
46336;DHT22;31365;48.858;8.530;2024-03-06T16:07:38;8.20;99.90